sensor_id;sensor_type;location;lat;lon;timestamp;P1;durP1;ratioP1;P2;durP2;ratioP2
31043;SDS011;17710;52.520;13.352;2023-02-28T00:02:22;7.40;;;3.08;;
31043;SDS011;17710;52.520;13.352;2023-02-28T00:04:49;7.45;;;2.25;;
31043;SDS011;17710;52.520;13.352;2023-02-28T00:07:26;5.70;;;2.60;;
31043;SDS011;17710;52.520;13.352;2023-02-28T00:09:52;5.35;;;2.50;;
31043;SDS011;17710;52.520;13.352;2023-02-28T00:12:19;5.80;;;2.50;;
31043;SDS011;17710;52.520;13.352;2023-02-28T00:14:45;7.68;;;2.70;;
31043;SDS011;17710;52.520;13.352;2023-02-28T00:17:11;6.05;;;2.85;;
31043;SDS011;17710;52.520;13.352;2023-02-28T00:19:39;9.95;;;3.33;;
31043;SDS011;17710;52.520;13.352;2023-02-28T00:22:05;6.35;;;3.20;;
31043;SDS011;17710;52.520;13.352;2023-02-28T00:24:32;7.18;;;3.15;;
31043;SDS011;17710;52.520;13.352;2023-02-28T00:26:58;6.45;;;2.95;;
31043;SDS011;17710;52.520;13.352;2023-02-28T00:29:24;7.53;;;2.78;;
31043;SDS011;17710;52.520;13.352;2023-02-28T00:31:51;5.95;;;2.83;;
31043;SDS011;17710;52.520;13.352;2023-02-28T00:34:17;7.57;;;3.40;;
31043;SDS011;17710;52.520;13.352;2023-02-28T00:36:45;5.80;;;2.60;;
31043;SDS011;17710;52.520;13.352;2023-02-28T00:39:14;5.05;;;2.53;;
31043;SDS011;17710;52.520;13.352;2023-02-28T00:41:41;9.93;;;3.25;;
31043;SDS011;17710;52.520;13.352;2023-02-28T00:44:08;5.10;;;2.92;;
31043;SDS011;17710;52.520;13.352;2023-02-28T00:46:34;6.72;;;2.83;;
31043;SDS011;17710;52.520;13.352;2023-02-28T00:49:01;5.57;;;2.78;;
31043;SDS011;17710;52.520;13.352;2023-02-28T00:51:27;6.15;;;2.88;;
31043;SDS011;17710;52.520;13.352;2023-02-28T00:53:55;10.73;;;2.88;;
31043;SDS011;17710;52.520;13.352;2023-02-28T00:56:21;7.57;;;2.92;;
31043;SDS011;17710;52.520;13.352;2023-02-28T00:58:48;6.47;;;3.22;;
31043;SDS011;17710;52.520;13.352;2023-02-28T01:01:14;7.70;;;3.00;;
31043;SDS011;17710;52.520;13.352;2023-02-28T01:03:41;11.27;;;3.50;;
31043;SDS011;17710;52.520;13.352;2023-02-28T01:06:07;6.00;;;3.03;;
31043;SDS011;17710;52.520;13.352;2023-02-28T01:08:33;6.90;;;3.00;;
31043;SDS011;17710;52.520;13.352;2023-02-28T01:11:08;7.53;;;2.60;;
31043;SDS011;17710;52.520;13.352;2023-02-28T01:13:35;7.22;;;3.38;;
31043;SDS011;17710;52.520;13.352;2023-02-28T01:16:08;5.90;;;3.10;;
31043;SDS011;17710;52.520;13.352;2023-02-28T01:18:35;6.90;;;2.78;;
31043;SDS011;17710;52.520;13.352;2023-02-28T01:21:03;5.22;;;2.75;;
31043;SDS011;17710;52.520;13.352;2023-02-28T01:23:29;7.07;;;3.25;;
31043;SDS011;17710;52.520;13.352;2023-02-28T01:25:57;7.32;;;3.45;;
31043;SDS011;17710;52.520;13.352;2023-02-28T01:28:25;8.15;;;3.35;;
31043;SDS011;17710;52.520;13.352;2023-02-28T01:30:51;6.28;;;3.03;;
31043;SDS011;17710;52.520;13.352;2023-02-28T01:33:18;10.23;;;3.10;;
31043;SDS011;17710;52.520;13.352;2023-02-28T01:35:45;8.68;;;3.33;;
31043;SDS011;17710;52.520;13.352;2023-02-28T01:38:11;8.52;;;2.67;;
31043;SDS011;17710;52.520;13.352;2023-02-28T01:40:37;8.13;;;3.45;;
31043;SDS011;17710;52.520;13.352;2023-02-28T01:43:05;7.15;;;2.97;;
31043;SDS011;17710;52.520;13.352;2023-02-28T01:45:46;8.07;;;3.22;;
31043;SDS011;17710;52.520;13.352;2023-02-28T01:48:12;6.13;;;3.25;;
31043;SDS011;17710;52.520;13.352;2023-02-28T01:50:42;6.47;;;2.88;;
31043;SDS011;17710;52.520;13.352;2023-02-28T01:53:12;5.68;;;2.83;;
31043;SDS011;17710;52.520;13.352;2023-02-28T01:55:42;8.43;;;3.10;;
31043;SDS011;17710;52.520;13.352;2023-02-28T01:58:12;6.03;;;3.20;;
31043;SDS011;17710;52.520;13.352;2023-02-28T02:00:39;6.43;;;2.97;;
31043;SDS011;17710;52.520;13.352;2023-02-28T02:03:09;9.50;;;3.65;;
31043;SDS011;17710;52.520;13.352;2023-02-28T02:05:39;7.90;;;3.55;;
31043;SDS011;17710;52.520;13.352;2023-02-28T02:08:06;5.75;;;2.85;;
31043;SDS011;17710;52.520;13.352;2023-02-28T02:10:38;7.88;;;3.38;;
31043;SDS011;17710;52.520;13.352;2023-02-28T02:15:59;6.65;;;3.25;;
31043;SDS011;17710;52.520;13.352;2023-02-28T02:18:37;7.57;;;3.13;;
31043;SDS011;17710;52.520;13.352;2023-02-28T02:21:24;13.10;;;3.20;;
31043;SDS011;17710;52.520;13.352;2023-02-28T02:24:13;8.18;;;2.97;;
31043;SDS011;17710;52.520;13.352;2023-02-28T02:26:58;6.07;;;2.90;;
31043;SDS011;17710;52.520;13.352;2023-02-28T02:29:40;9.70;;;3.42;;
31043;SDS011;17710;52.520;13.352;2023-02-28T02:32:23;6.53;;;3.15;;
31043;SDS011;17710;52.520;13.352;2023-02-28T02:35:07;5.90;;;3.08;;
31043;SDS011;17710;52.520;13.352;2023-02-28T02:37:40;8.95;;;3.30;;
31043;SDS011;17710;52.520;13.352;2023-02-28T02:40:10;9.88;;;4.28;;
31043;SDS011;17710;52.520;13.352;2023-02-28T02:42:44;11.32;;;3.72;;
31043;SDS011;17710;52.520;13.352;2023-02-28T02:45:17;6.18;;;2.80;;
31043;SDS011;17710;52.520;13.352;2023-02-28T02:47:49;8.15;;;3.05;;
31043;SDS011;17710;52.520;13.352;2023-02-28T02:50:19;9.38;;;3.72;;
31043;SDS011;17710;52.520;13.352;2023-02-28T02:52:51;8.02;;;3.40;;
31043;SDS011;17710;52.520;13.352;2023-02-28T02:55:21;10.35;;;3.55;;
31043;SDS011;17710;52.520;13.352;2023-02-28T02:57:50;7.57;;;3.67;;
31043;SDS011;17710;52.520;13.352;2023-02-28T03:00:20;5.65;;;3.38;;
31043;SDS011;17710;52.520;13.352;2023-02-28T03:02:51;7.03;;;3.78;;
31043;SDS011;17710;52.520;13.352;2023-02-28T03:05:23;6.45;;;3.17;;
31043;SDS011;17710;52.520;13.352;2023-02-28T03:07:51;11.38;;;4.05;;
31043;SDS011;17710;52.520;13.352;2023-02-28T03:10:32;6.65;;;3.17;;
31043;SDS011;17710;52.520;13.352;2023-02-28T03:13:20;6.72;;;3.33;;
31043;SDS011;17710;52.520;13.352;2023-02-28T03:16:07;8.68;;;3.42;;
31043;SDS011;17710;52.520;13.352;2023-02-28T03:18:49;8.80;;;3.65;;
31043;SDS011;17710;52.520;13.352;2023-02-28T03:21:23;13.35;;;3.92;;
31043;SDS011;17710;52.520;13.352;2023-02-28T03:23:57;10.25;;;3.67;;
31043;SDS011;17710;52.520;13.352;2023-02-28T03:26:29;8.02;;;3.45;;
31043;SDS011;17710;52.520;13.352;2023-02-28T03:29:01;8.25;;;3.85;;
31043;SDS011;17710;52.520;13.352;2023-02-28T03:31:30;8.25;;;3.45;;
31043;SDS011;17710;52.520;13.352;2023-02-28T03:34:03;10.52;;;3.70;;
31043;SDS011;17710;52.520;13.352;2023-02-28T03:36:35;10.65;;;3.47;;
31043;SDS011;17710;52.520;13.352;2023-02-28T03:39:09;8.03;;;3.17;;
31043;SDS011;17710;52.520;13.352;2023-02-28T03:41:41;7.50;;;3.13;;
31043;SDS011;17710;52.520;13.352;2023-02-28T03:44:13;7.55;;;3.45;;
31043;SDS011;17710;52.520;13.352;2023-02-28T03:46:44;9.70;;;3.72;;
31043;SDS011;17710;52.520;13.352;2023-02-28T03:49:15;9.70;;;4.20;;
31043;SDS011;17710;52.520;13.352;2023-02-28T03:51:46;10.75;;;3.90;;
31043;SDS011;17710;52.520;13.352;2023-02-28T03:54:18;8.38;;;3.85;;
31043;SDS011;17710;52.520;13.352;2023-02-28T03:56:48;7.40;;;3.83;;
31043;SDS011;17710;52.520;13.352;2023-02-28T03:59:22;5.68;;;3.40;;
31043;SDS011;17710;52.520;13.352;2023-02-28T04:01:52;8.52;;;3.38;;
31043;SDS011;17710;52.520;13.352;2023-02-28T04:04:20;12.05;;;3.72;;
31043;SDS011;17710;52.520;13.352;2023-02-28T04:06:49;7.43;;;3.40;;
31043;SDS011;17710;52.520;13.352;2023-02-28T04:09:16;9.48;;;3.85;;
31043;SDS011;17710;52.520;13.352;2023-02-28T04:11:43;9.98;;;4.53;;
31043;SDS011;17710;52.520;13.352;2023-02-28T04:14:12;8.55;;;3.88;;
31043;SDS011;17710;52.520;13.352;2023-02-28T04:16:39;8.90;;;4.10;;
31043;SDS011;17710;52.520;13.352;2023-02-28T04:19:07;7.85;;;4.10;;
31043;SDS011;17710;52.520;13.352;2023-02-28T04:21:35;11.05;;;4.00;;
31043;SDS011;17710;52.520;13.352;2023-02-28T04:24:05;14.52;;;4.22;;
31043;SDS011;17710;52.520;13.352;2023-02-28T04:26:33;10.70;;;4.00;;
31043;SDS011;17710;52.520;13.352;2023-02-28T04:29:01;11.20;;;4.05;;
31043;SDS011;17710;52.520;13.352;2023-02-28T04:31:29;9.25;;;3.83;;
31043;SDS011;17710;52.520;13.352;2023-02-28T04:33:55;9.63;;;4.00;;
31043;SDS011;17710;52.520;13.352;2023-02-28T04:36:22;7.57;;;3.95;;
31043;SDS011;17710;52.520;13.352;2023-02-28T04:38:48;10.18;;;4.20;;
31043;SDS011;17710;52.520;13.352;2023-02-28T04:41:16;7.90;;;3.88;;
31043;SDS011;17710;52.520;13.352;2023-02-28T04:43:43;10.55;;;4.57;;
31043;SDS011;17710;52.520;13.352;2023-02-28T04:46:09;13.20;;;4.68;;
31043;SDS011;17710;52.520;13.352;2023-02-28T04:48:37;9.18;;;4.55;;
31043;SDS011;17710;52.520;13.352;2023-02-28T04:51:06;13.02;;;4.45;;
31043;SDS011;17710;52.520;13.352;2023-02-28T04:53:33;8.10;;;4.05;;
31043;SDS011;17710;52.520;13.352;2023-02-28T04:56:00;10.15;;;4.47;;
31043;SDS011;17710;52.520;13.352;2023-02-28T04:58:29;11.95;;;4.63;;
31043;SDS011;17710;52.520;13.352;2023-02-28T05:01:00;10.55;;;4.95;;
31043;SDS011;17710;52.520;13.352;2023-02-28T05:03:28;10.20;;;4.22;;
31043;SDS011;17710;52.520;13.352;2023-02-28T05:05:54;9.43;;;4.53;;
31043;SDS011;17710;52.520;13.352;2023-02-28T05:08:20;9.20;;;4.30;;
31043;SDS011;17710;52.520;13.352;2023-02-28T05:10:47;11.88;;;4.68;;
31043;SDS011;17710;52.520;13.352;2023-02-28T05:13:13;12.93;;;4.40;;
31043;SDS011;17710;52.520;13.352;2023-02-28T05:15:41;14.07;;;5.47;;
31043;SDS011;17710;52.520;13.352;2023-02-28T05:18:08;12.25;;;4.68;;
31043;SDS011;17710;52.520;13.352;2023-02-28T05:20:34;9.35;;;4.47;;
31043;SDS011;17710;52.520;13.352;2023-02-28T05:23:00;11.75;;;4.68;;
31043;SDS011;17710;52.520;13.352;2023-02-28T05:25:28;7.93;;;3.65;;
31043;SDS011;17710;52.520;13.352;2023-02-28T05:27:54;12.35;;;4.35;;
31043;SDS011;17710;52.520;13.352;2023-02-28T05:30:21;12.57;;;4.72;;
31043;SDS011;17710;52.520;13.352;2023-02-28T05:32:50;9.98;;;4.68;;
31043;SDS011;17710;52.520;13.352;2023-02-28T05:35:17;11.13;;;4.25;;
31043;SDS011;17710;52.520;13.352;2023-02-28T05:37:44;11.75;;;4.40;;
31043;SDS011;17710;52.520;13.352;2023-02-28T05:40:11;13.02;;;4.80;;
31043;SDS011;17710;52.520;13.352;2023-02-28T05:42:38;12.93;;;4.30;;
31043;SDS011;17710;52.520;13.352;2023-02-28T05:45:05;11.85;;;4.90;;
31043;SDS011;17710;52.520;13.352;2023-02-28T05:47:33;12.95;;;4.72;;
31043;SDS011;17710;52.520;13.352;2023-02-28T05:50:00;12.02;;;4.70;;
31043;SDS011;17710;52.520;13.352;2023-02-28T05:52:27;12.57;;;5.00;;
31043;SDS011;17710;52.520;13.352;2023-02-28T05:54:54;12.65;;;5.10;;
31043;SDS011;17710;52.520;13.352;2023-02-28T05:57:21;11.73;;;5.18;;
31043;SDS011;17710;52.520;13.352;2023-02-28T05:59:47;12.38;;;5.43;;
31043;SDS011;17710;52.520;13.352;2023-02-28T06:02:15;13.95;;;5.13;;
31043;SDS011;17710;52.520;13.352;2023-02-28T06:05:24;11.57;;;4.97;;
31043;SDS011;17710;52.520;13.352;2023-02-28T06:07:47;12.20;;;5.28;;
31043;SDS011;17710;52.520;13.352;2023-02-28T06:10:13;13.68;;;4.60;;
31043;SDS011;17710;52.520;13.352;2023-02-28T06:12:40;12.52;;;4.82;;
31043;SDS011;17710;52.520;13.352;2023-02-28T06:15:07;12.73;;;5.10;;
31043;SDS011;17710;52.520;13.352;2023-02-28T06:17:39;13.68;;;4.88;;
31043;SDS011;17710;52.520;13.352;2023-02-28T06:20:11;9.50;;;4.70;;
31043;SDS011;17710;52.520;13.352;2023-02-28T06:22:38;11.35;;;4.70;;
31043;SDS011;17710;52.520;13.352;2023-02-28T06:25:05;14.20;;;4.95;;
31043;SDS011;17710;52.520;13.352;2023-02-28T06:27:34;10.40;;;4.35;;
31043;SDS011;17710;52.520;13.352;2023-02-28T06:30:04;10.13;;;4.70;;
31043;SDS011;17710;52.520;13.352;2023-02-28T06:32:32;12.35;;;4.85;;
31043;SDS011;17710;52.520;13.352;2023-02-28T06:34:59;13.85;;;5.32;;
31043;SDS011;17710;52.520;13.352;2023-02-28T06:37:27;10.43;;;4.80;;
31043;SDS011;17710;52.520;13.352;2023-02-28T06:39:53;12.88;;;5.43;;
31043;SDS011;17710;52.520;13.352;2023-02-28T06:42:21;11.98;;;5.15;;
31043;SDS011;17710;52.520;13.352;2023-02-28T06:44:49;16.75;;;6.82;;
31043;SDS011;17710;52.520;13.352;2023-02-28T06:47:16;12.43;;;5.25;;
31043;SDS011;17710;52.520;13.352;2023-02-28T06:49:42;12.27;;;5.07;;
31043;SDS011;17710;52.520;13.352;2023-02-28T06:52:10;13.77;;;5.38;;
31043;SDS011;17710;52.520;13.352;2023-02-28T06:54:38;12.43;;;5.45;;
31043;SDS011;17710;52.520;13.352;2023-02-28T06:57:04;15.32;;;5.50;;
31043;SDS011;17710;52.520;13.352;2023-02-28T06:59:31;14.55;;;6.03;;
31043;SDS011;17710;52.520;13.352;2023-02-28T07:02:07;14.02;;;6.05;;
31043;SDS011;17710;52.520;13.352;2023-02-28T07:04:38;10.63;;;5.30;;
31043;SDS011;17710;52.520;13.352;2023-02-28T07:07:09;17.55;;;6.00;;
31043;SDS011;17710;52.520;13.352;2023-02-28T07:09:37;13.15;;;5.60;;
31043;SDS011;17710;52.520;13.352;2023-02-28T07:12:04;12.15;;;5.93;;
31043;SDS011;17710;52.520;13.352;2023-02-28T07:14:31;10.70;;;5.50;;
31043;SDS011;17710;52.520;13.352;2023-02-28T07:17:00;11.43;;;5.07;;
31043;SDS011;17710;52.520;13.352;2023-02-28T07:19:28;14.13;;;5.57;;
31043;SDS011;17710;52.520;13.352;2023-02-28T07:21:58;17.77;;;6.65;;
31043;SDS011;17710;52.520;13.352;2023-02-28T07:24:27;16.30;;;7.13;;
31043;SDS011;17710;52.520;13.352;2023-02-28T07:26:58;18.48;;;6.75;;
31043;SDS011;17710;52.520;13.352;2023-02-28T07:29:26;25.13;;;7.47;;
31043;SDS011;17710;52.520;13.352;2023-02-28T07:31:54;17.95;;;7.00;;
31043;SDS011;17710;52.520;13.352;2023-02-28T07:34:20;17.75;;;7.15;;
31043;SDS011;17710;52.520;13.352;2023-02-28T07:36:47;20.50;;;6.45;;
31043;SDS011;17710;52.520;13.352;2023-02-28T07:39:13;21.05;;;6.78;;
31043;SDS011;17710;52.520;13.352;2023-02-28T07:41:40;21.15;;;8.18;;
31043;SDS011;17710;52.520;13.352;2023-02-28T07:44:09;19.52;;;7.95;;
31043;SDS011;17710;52.520;13.352;2023-02-28T07:46:36;22.13;;;6.47;;
31043;SDS011;17710;52.520;13.352;2023-02-28T07:49:03;17.67;;;7.22;;
31043;SDS011;17710;52.520;13.352;2023-02-28T07:51:29;18.55;;;5.65;;
31043;SDS011;17710;52.520;13.352;2023-02-28T07:53:56;10.32;;;4.72;;
31043;SDS011;17710;52.520;13.352;2023-02-28T07:56:23;11.25;;;4.80;;
31043;SDS011;17710;52.520;13.352;2023-02-28T07:58:49;8.93;;;3.88;;
31043;SDS011;17710;52.520;13.352;2023-02-28T08:01:17;13.02;;;3.13;;
31043;SDS011;17710;52.520;13.352;2023-02-28T08:03:44;15.73;;;5.47;;
31043;SDS011;17710;52.520;13.352;2023-02-28T08:06:14;6.53;;;3.30;;
31043;SDS011;17710;52.520;13.352;2023-02-28T08:08:43;18.38;;;2.97;;
31043;SDS011;17710;52.520;13.352;2023-02-28T08:11:10;9.20;;;2.28;;
31043;SDS011;17710;52.520;13.352;2023-02-28T08:13:36;8.40;;;2.35;;
31043;SDS011;17710;52.520;13.352;2023-02-28T08:16:07;9.88;;;2.17;;
31043;SDS011;17710;52.520;13.352;2023-02-28T08:18:35;12.23;;;3.05;;
31043;SDS011;17710;52.520;13.352;2023-02-28T08:21:05;5.85;;;2.70;;
31043;SDS011;17710;52.520;13.352;2023-02-28T08:23:32;15.60;;;2.60;;
31043;SDS011;17710;52.520;13.352;2023-02-28T08:26:00;9.63;;;2.55;;
31043;SDS011;17710;52.520;13.352;2023-02-28T08:28:27;10.30;;;2.25;;
31043;SDS011;17710;52.520;13.352;2023-02-28T08:30:53;7.47;;;2.35;;
31043;SDS011;17710;52.520;13.352;2023-02-28T08:33:20;5.70;;;2.75;;
31043;SDS011;17710;52.520;13.352;2023-02-28T08:35:49;4.20;;;1.83;;
31043;SDS011;17710;52.520;13.352;2023-02-28T08:38:18;9.35;;;2.20;;
31043;SDS011;17710;52.520;13.352;2023-02-28T08:40:44;8.18;;;3.10;;
31043;SDS011;17710;52.520;13.352;2023-02-28T08:43:11;10.20;;;3.10;;
31043;SDS011;17710;52.520;13.352;2023-02-28T08:45:37;5.05;;;2.22;;
31043;SDS011;17710;52.520;13.352;2023-02-28T08:48:07;10.65;;;2.55;;
31043;SDS011;17710;52.520;13.352;2023-02-28T08:50:33;9.80;;;2.25;;
31043;SDS011;17710;52.520;13.352;2023-02-28T08:53:01;9.27;;;2.17;;
31043;SDS011;17710;52.520;13.352;2023-02-28T08:55:27;4.57;;;2.33;;
31043;SDS011;17710;52.520;13.352;2023-02-28T08:57:54;12.68;;;2.03;;
31043;SDS011;17710;52.520;13.352;2023-02-28T09:00:21;19.70;;;6.93;;
31043;SDS011;17710;52.520;13.352;2023-02-28T09:02:48;6.95;;;1.50;;
31043;SDS011;17710;52.520;13.352;2023-02-28T09:05:14;3.85;;;1.40;;
31043;SDS011;17710;52.520;13.352;2023-02-28T09:07:41;4.00;;;1.52;;
31043;SDS011;17710;52.520;13.352;2023-02-28T09:10:09;3.40;;;1.73;;
31043;SDS011;17710;52.520;13.352;2023-02-28T09:12:36;2.88;;;1.30;;
31043;SDS011;17710;52.520;13.352;2023-02-28T09:15:03;5.15;;;1.60;;
31043;SDS011;17710;52.520;13.352;2023-02-28T09:17:30;3.67;;;1.80;;
31043;SDS011;17710;52.520;13.352;2023-02-28T09:19:57;5.35;;;1.83;;
31043;SDS011;17710;52.520;13.352;2023-02-28T09:22:24;3.08;;;1.52;;
31043;SDS011;17710;52.520;13.352;2023-02-28T09:24:50;7.88;;;2.10;;
31043;SDS011;17710;52.520;13.352;2023-02-28T09:27:18;5.35;;;1.52;;
31043;SDS011;17710;52.520;13.352;2023-02-28T09:29:45;7.22;;;1.77;;
31043;SDS011;17710;52.520;13.352;2023-02-28T09:32:11;4.05;;;1.45;;
31043;SDS011;17710;52.520;13.352;2023-02-28T09:34:38;3.28;;;1.88;;
31043;SDS011;17710;52.520;13.352;2023-02-28T09:37:04;5.65;;;2.20;;
31043;SDS011;17710;52.520;13.352;2023-02-28T09:39:31;5.65;;;1.98;;
31043;SDS011;17710;52.520;13.352;2023-02-28T09:41:57;3.45;;;1.42;;
31043;SDS011;17710;52.520;13.352;2023-02-28T09:44:28;6.25;;;1.55;;
31043;SDS011;17710;52.520;13.352;2023-02-28T09:46:58;4.88;;;1.55;;
31043;SDS011;17710;52.520;13.352;2023-02-28T09:49:30;6.07;;;2.10;;
31043;SDS011;17710;52.520;13.352;2023-02-28T09:52:04;2.67;;;1.30;;
31043;SDS011;17710;52.520;13.352;2023-02-28T09:54:34;2.08;;;1.35;;
31043;SDS011;17710;52.520;13.352;2023-02-28T09:57:04;4.53;;;1.35;;
31043;SDS011;17710;52.520;13.352;2023-02-28T09:59:38;2.35;;;1.33;;
31043;SDS011;17710;52.520;13.352;2023-02-28T10:02:13;6.45;;;1.92;;
31043;SDS011;17710;52.520;13.352;2023-02-28T10:04:49;4.82;;;2.35;;
31043;SDS011;17710;52.520;13.352;2023-02-28T10:07:23;7.97;;;2.08;;
31043;SDS011;17710;52.520;13.352;2023-02-28T10:10:04;3.85;;;1.75;;
31043;SDS011;17710;52.520;13.352;2023-02-28T10:12:40;3.00;;;1.60;;
31043;SDS011;17710;52.520;13.352;2023-02-28T10:15:14;7.93;;;2.03;;
31043;SDS011;17710;52.520;13.352;2023-02-28T10:17:42;2.67;;;1.50;;
31043;SDS011;17710;52.520;13.352;2023-02-28T10:20:14;8.20;;;2.00;;
31043;SDS011;17710;52.520;13.352;2023-02-28T10:22:49;5.97;;;1.92;;
31043;SDS011;17710;52.520;13.352;2023-02-28T10:25:20;5.53;;;1.63;;
31043;SDS011;17710;52.520;13.352;2023-02-28T10:27:48;3.95;;;1.92;;
31043;SDS011;17710;52.520;13.352;2023-02-28T10:30:17;5.20;;;3.05;;
31043;SDS011;17710;52.520;13.352;2023-02-28T10:32:46;6.20;;;2.08;;
31043;SDS011;17710;52.520;13.352;2023-02-28T10:35:16;5.32;;;1.98;;
31043;SDS011;17710;52.520;13.352;2023-02-28T10:37:44;5.20;;;2.15;;
31043;SDS011;17710;52.520;13.352;2023-02-28T10:40:25;3.55;;;1.58;;
31043;SDS011;17710;52.520;13.352;2023-02-28T10:42:57;3.55;;;1.70;;
31043;SDS011;17710;52.520;13.352;2023-02-28T10:45:26;3.88;;;1.67;;
31043;SDS011;17710;52.520;13.352;2023-02-28T10:47:57;6.32;;;1.90;;
31043;SDS011;17710;52.520;13.352;2023-02-28T10:50:27;4.72;;;1.70;;
31043;SDS011;17710;52.520;13.352;2023-02-28T10:53:05;4.07;;;1.45;;
31043;SDS011;17710;52.520;13.352;2023-02-28T10:55:40;6.43;;;2.47;;
31043;SDS011;17710;52.520;13.352;2023-02-28T10:58:17;2.67;;;1.60;;
31043;SDS011;17710;52.520;13.352;2023-02-28T11:01:10;6.75;;;2.00;;
31043;SDS011;17710;52.520;13.352;2023-02-28T11:03:40;4.25;;;1.58;;
31043;SDS011;17710;52.520;13.352;2023-02-28T11:06:07;3.22;;;1.48;;
31043;SDS011;17710;52.520;13.352;2023-02-28T11:08:45;4.22;;;1.85;;
31043;SDS011;17710;52.520;13.352;2023-02-28T11:11:13;10.55;;;1.90;;
31043;SDS011;17710;52.520;13.352;2023-02-28T11:13:42;6.28;;;2.03;;
31043;SDS011;17710;52.520;13.352;2023-02-28T11:16:12;5.95;;;2.20;;
31043;SDS011;17710;52.520;13.352;2023-02-28T11:18:41;6.75;;;2.03;;
31043;SDS011;17710;52.520;13.352;2023-02-28T11:21:11;3.95;;;1.60;;
31043;SDS011;17710;52.520;13.352;2023-02-28T11:23:43;3.30;;;1.50;;
31043;SDS011;17710;52.520;13.352;2023-02-28T11:26:10;5.97;;;1.80;;
31043;SDS011;17710;52.520;13.352;2023-02-28T11:28:38;3.72;;;1.50;;
31043;SDS011;17710;52.520;13.352;2023-02-28T11:31:16;6.95;;;2.15;;
31043;SDS011;17710;52.520;13.352;2023-02-28T11:33:45;4.20;;;1.92;;
31043;SDS011;17710;52.520;13.352;2023-02-28T11:36:16;3.92;;;1.60;;
31043;SDS011;17710;52.520;13.352;2023-02-28T11:38:45;7.13;;;1.90;;
31043;SDS011;17710;52.520;13.352;2023-02-28T11:44:16;6.18;;;1.95;;
31043;SDS011;17710;52.520;13.352;2023-02-28T11:46:51;4.78;;;1.40;;
31043;SDS011;17710;52.520;13.352;2023-02-28T11:49:24;5.00;;;1.85;;
31043;SDS011;17710;52.520;13.352;2023-02-28T11:52:01;8.00;;;1.95;;
31043;SDS011;17710;52.520;13.352;2023-02-28T11:54:35;3.15;;;1.95;;
31043;SDS011;17710;52.520;13.352;2023-02-28T11:57:20;4.22;;;1.92;;
31043;SDS011;17710;52.520;13.352;2023-02-28T11:59:59;6.53;;;2.00;;
31043;SDS011;17710;52.520;13.352;2023-02-28T12:02:35;5.20;;;2.00;;
31043;SDS011;17710;52.520;13.352;2023-02-28T12:05:20;5.22;;;2.15;;
31043;SDS011;17710;52.520;13.352;2023-02-28T12:07:56;5.95;;;2.30;;
31043;SDS011;17710;52.520;13.352;2023-02-28T12:10:32;5.53;;;2.33;;
31043;SDS011;17710;52.520;13.352;2023-02-28T12:15:45;8.68;;;2.25;;
31043;SDS011;17710;52.520;13.352;2023-02-28T12:18:29;4.60;;;2.60;;
31043;SDS011;17710;52.520;13.352;2023-02-28T12:21:11;8.20;;;3.50;;
31043;SDS011;17710;52.520;13.352;2023-02-28T12:23:50;10.68;;;2.95;;
31043;SDS011;17710;52.520;13.352;2023-02-28T12:26:29;7.72;;;2.85;;
31043;SDS011;17710;52.520;13.352;2023-02-28T12:29:01;6.22;;;2.13;;
31043;SDS011;17710;52.520;13.352;2023-02-28T12:31:35;8.13;;;3.05;;
31043;SDS011;17710;52.520;13.352;2023-02-28T12:34:07;6.97;;;2.40;;
31043;SDS011;17710;52.520;13.352;2023-02-28T12:36:38;4.70;;;2.50;;
31043;SDS011;17710;52.520;13.352;2023-02-28T12:39:08;4.47;;;2.10;;
31043;SDS011;17710;52.520;13.352;2023-02-28T12:41:39;6.43;;;2.30;;
31043;SDS011;17710;52.520;13.352;2023-02-28T12:44:11;4.03;;;2.53;;
31043;SDS011;17710;52.520;13.352;2023-02-28T12:46:45;6.40;;;2.70;;
31043;SDS011;17710;52.520;13.352;2023-02-28T12:49:17;3.63;;;2.03;;
31043;SDS011;17710;52.520;13.352;2023-02-28T12:51:48;4.40;;;2.38;;
31043;SDS011;17710;52.520;13.352;2023-02-28T12:54:17;7.15;;;2.45;;
31043;SDS011;17710;52.520;13.352;2023-02-28T12:56:50;10.07;;;2.92;;
31043;SDS011;17710;52.520;13.352;2023-02-28T12:59:23;5.05;;;3.13;;
31043;SDS011;17710;52.520;13.352;2023-02-28T13:05:00;6.18;;;2.45;;
31043;SDS011;17710;52.520;13.352;2023-02-28T13:07:45;9.30;;;2.67;;
31043;SDS011;17710;52.520;13.352;2023-02-28T13:10:22;4.55;;;2.55;;
31043;SDS011;17710;52.520;13.352;2023-02-28T13:12:50;12.57;;;3.08;;
31043;SDS011;17710;52.520;13.352;2023-02-28T13:15:19;4.13;;;2.63;;
31043;SDS011;17710;52.520;13.352;2023-02-28T13:17:50;6.93;;;2.50;;
31043;SDS011;17710;52.520;13.352;2023-02-28T13:20:21;6.03;;;2.53;;
31043;SDS011;17710;52.520;13.352;2023-02-28T13:22:50;8.52;;;2.83;;
31043;SDS011;17710;52.520;13.352;2023-02-28T13:34:34;4.57;;;2.03;;
31043;SDS011;17710;52.520;13.352;2023-02-28T13:42:54;3.25;;;1.75;;
31043;SDS011;17710;52.520;13.352;2023-02-28T13:45:22;5.05;;;2.28;;
31043;SDS011;17710;52.520;13.352;2023-02-28T13:47:54;5.68;;;2.50;;
31043;SDS011;17710;52.520;13.352;2023-02-28T13:50:27;4.05;;;2.17;;
31043;SDS011;17710;52.520;13.352;2023-02-28T13:56:01;6.07;;;2.47;;
31043;SDS011;17710;52.520;13.352;2023-02-28T13:58:39;6.40;;;2.90;;
31043;SDS011;17710;52.520;13.352;2023-02-28T14:01:14;7.25;;;2.83;;
31043;SDS011;17710;52.520;13.352;2023-02-28T14:03:54;4.72;;;1.92;;
31043;SDS011;17710;52.520;13.352;2023-02-28T14:06:39;6.10;;;2.50;;
31043;SDS011;17710;52.520;13.352;2023-02-28T14:09:21;5.30;;;2.83;;
31043;SDS011;17710;52.520;13.352;2023-02-28T14:11:50;5.03;;;2.47;;
31043;SDS011;17710;52.520;13.352;2023-02-28T14:17:21;6.00;;;2.72;;
31043;SDS011;17710;52.520;13.352;2023-02-28T14:19:48;6.05;;;2.50;;
31043;SDS011;17710;52.520;13.352;2023-02-28T14:22:18;3.25;;;2.20;;
31043;SDS011;17710;52.520;13.352;2023-02-28T14:25:10;4.50;;;2.60;;
31043;SDS011;17710;52.520;13.352;2023-02-28T14:27:45;3.95;;;1.98;;
31043;SDS011;17710;52.520;13.352;2023-02-28T14:33:14;9.48;;;4.35;;
31043;SDS011;17710;52.520;13.352;2023-02-28T14:35:52;8.13;;;3.47;;
31043;SDS011;17710;52.520;13.352;2023-02-28T14:38:31;7.43;;;2.40;;
31043;SDS011;17710;52.520;13.352;2023-02-28T14:41:03;5.43;;;2.85;;
31043;SDS011;17710;52.520;13.352;2023-02-28T14:43:32;5.13;;;2.55;;
31043;SDS011;17710;52.520;13.352;2023-02-28T14:46:16;7.50;;;2.75;;
31043;SDS011;17710;52.520;13.352;2023-02-28T14:48:44;5.90;;;2.10;;
31043;SDS011;17710;52.520;13.352;2023-02-28T14:51:11;3.58;;;2.20;;
31043;SDS011;17710;52.520;13.352;2023-02-28T14:53:44;3.72;;;2.30;;
31043;SDS011;17710;52.520;13.352;2023-02-28T14:56:23;8.32;;;2.42;;
31043;SDS011;17710;52.520;13.352;2023-02-28T14:58:52;6.65;;;2.20;;
31043;SDS011;17710;52.520;13.352;2023-02-28T15:01:19;8.90;;;2.53;;
31043;SDS011;17710;52.520;13.352;2023-02-28T15:03:47;6.07;;;3.30;;
31043;SDS011;17710;52.520;13.352;2023-02-28T15:06:22;8.40;;;2.75;;
31043;SDS011;17710;52.520;13.352;2023-02-28T15:09:01;7.70;;;4.35;;
31043;SDS011;17710;52.520;13.352;2023-02-28T15:11:35;4.82;;;2.50;;
31043;SDS011;17710;52.520;13.352;2023-02-28T15:14:03;7.15;;;2.47;;
31043;SDS011;17710;52.520;13.352;2023-02-28T15:16:31;5.55;;;2.10;;
31043;SDS011;17710;52.520;13.352;2023-02-28T15:19:01;5.13;;;2.55;;
31043;SDS011;17710;52.520;13.352;2023-02-28T15:21:31;5.43;;;2.20;;
31043;SDS011;17710;52.520;13.352;2023-02-28T15:24:01;7.22;;;3.25;;
31043;SDS011;17710;52.520;13.352;2023-02-28T15:26:31;4.88;;;2.80;;